createdAt,value
2022-08-29T00:01:40.455Z,90.13
2022-08-29T00:04:08.879Z,92.33
2022-08-29T00:06:38.334Z,92.02
2022-08-29T00:09:06.408Z,91.96
2022-08-29T00:11:34.560Z,91.37
2022-08-29T00:14:02.601Z,92.85
2022-08-29T00:16:30.556Z,94.06
2022-08-29T00:18:59.085Z,94.23
2022-08-29T00:21:27.262Z,95.56
2022-08-29T00:23:56.695Z,96.85
2022-08-29T00:26:25.020Z,98.05
2022-08-29T00:28:57.477Z,99.65
2022-08-29T00:31:25.970Z,100.00
2022-08-29T00:33:54.151Z,100.00
2022-08-29T00:36:22.897Z,100.00
2022-08-29T00:38:51.093Z,100.00
2022-08-29T00:41:20.861Z,100.00
2022-08-29T00:43:48.858Z,100.00
2022-08-29T00:46:40.172Z,100.00
2022-08-29T00:49:13.026Z,100.00
2022-08-29T00:51:42.271Z,100.00
2022-08-29T00:54:12.877Z,100.00
2022-08-29T00:56:44.839Z,100.00
2022-08-29T00:59:18.026Z,100.00
2022-08-29T01:01:46.862Z,100.00
2022-08-29T01:04:24.159Z,100.00
2022-08-29T01:06:54.213Z,100.00
2022-08-29T01:09:22.727Z,100.00
2022-08-29T01:12:10.522Z,100.00
2022-08-29T01:14:41.199Z,100.00
2022-08-29T01:17:11.059Z,100.00
2022-08-29T01:19:46.468Z,100.00
2022-08-29T01:22:29.427Z,100.00
2022-08-29T01:24:59.738Z,100.00
2022-08-29T01:27:30.871Z,100.00
2022-08-29T01:29:59.103Z,100.00
2022-08-29T01:32:27.668Z,100.00
2022-08-29T01:34:55.771Z,100.00
2022-08-29T01:37:23.806Z,100.00
2022-08-29T01:39:51.873Z,100.00
2022-08-29T01:42:24.618Z,100.00
2022-08-29T01:44:55.717Z,100.00
2022-08-29T01:47:27.894Z,100.00
2022-08-29T01:49:56.544Z,100.00
2022-08-29T01:52:24.709Z,100.00
2022-08-29T01:54:52.634Z,100.00
2022-08-29T01:57:22.069Z,100.00
2022-08-29T01:59:50.664Z,100.00
2022-08-29T02:02:21.330Z,100.00
2022-08-29T02:04:49.976Z,100.00
2022-08-29T02:07:20.742Z,100.00
2022-08-29T02:09:49.223Z,100.00
2022-08-29T02:12:17.599Z,100.00
2022-08-29T02:14:47.304Z,100.00
2022-08-29T02:17:15.384Z,100.00
2022-08-29T02:19:43.831Z,100.00
2022-08-29T02:22:12.209Z,100.00
2022-08-29T02:24:40.303Z,100.00
2022-08-29T02:27:09.638Z,100.00
2022-08-29T02:29:38.635Z,100.00
2022-08-29T02:32:11.908Z,100.00
2022-08-29T02:34:43.941Z,100.00
2022-08-29T02:37:14.070Z,100.00
2022-08-29T02:39:42.134Z,100.00
2022-08-29T02:42:10.131Z,100.00
2022-08-29T02:44:38.197Z,100.00
2022-08-29T02:47:09.241Z,100.00
2022-08-29T02:49:38.098Z,100.00
2022-08-29T02:52:08.449Z,100.00
2022-08-29T02:54:36.669Z,100.00
2022-08-29T02:57:05.516Z,100.00
2022-08-29T02:59:33.798Z,100.00
2022-08-29T03:02:02.145Z,100.00
2022-08-29T03:04:31.553Z,100.00
2022-08-29T03:06:59.570Z,100.00
2022-08-29T03:09:27.579Z,100.00
2022-08-29T03:11:56.437Z,100.00
2022-08-29T03:14:25.022Z,100.00
2022-08-29T03:16:53.094Z,100.00
2022-08-29T03:19:21.114Z,100.00
2022-08-29T03:21:50.521Z,100.00
2022-08-29T03:24:23.562Z,100.00
2022-08-29T03:26:56.775Z,100.00
2022-08-29T03:29:26.036Z,100.00
2022-08-29T03:31:58.129Z,100.00
2022-08-29T03:34:26.508Z,100.00
2022-08-29T03:36:56.136Z,100.00
2022-08-29T03:39:24.361Z,100.00
2022-08-29T03:41:52.797Z,100.00
2022-08-29T03:44:20.897Z,100.00
2022-08-29T03:46:48.915Z,100.00
2022-08-29T03:49:17.319Z,100.00
2022-08-29T03:51:45.343Z,100.00
2022-08-29T03:54:14.710Z,100.00
2022-08-29T03:56:42.846Z,100.00
2022-08-29T03:59:11.330Z,100.00
2022-08-29T04:01:40.720Z,100.00
2022-08-29T04:04:29.057Z,100.00
2022-08-29T04:06:57.060Z,100.00
2022-08-29T04:09:26.602Z,100.00
2022-08-29T04:11:54.705Z,100.00
2022-08-29T04:14:23.285Z,100.00
2022-08-29T04:16:51.487Z,100.00
2022-08-29T04:19:20.612Z,100.00
2022-08-29T04:21:49.674Z,100.00
2022-08-29T04:24:19.545Z,100.00
2022-08-29T04:26:48.864Z,100.00
2022-08-29T04:29:17.065Z,100.00
2022-08-29T04:31:45.891Z,100.00
2022-08-29T04:34:14.384Z,100.00
2022-08-29T04:36:45.283Z,100.00
2022-08-29T04:39:13.624Z,100.00
2022-08-29T04:41:42.645Z,100.00
2022-08-29T04:44:13.350Z,100.00
2022-08-29T04:46:41.463Z,100.00
2022-08-29T04:49:10.147Z,100.00
2022-08-29T04:51:38.174Z,100.00
2022-08-29T04:54:06.941Z,100.00
2022-08-29T04:56:35.562Z,100.00
2022-08-29T04:59:05.274Z,100.00
2022-08-29T05:01:35.244Z,100.00
2022-08-29T05:04:03.757Z,100.00
2022-08-29T05:06:31.864Z,100.00
2022-08-29T05:09:00.267Z,100.00
2022-08-29T05:11:30.501Z,100.00
2022-08-29T05:13:59.664Z,100.00
2022-08-29T05:16:29.779Z,100.00
2022-08-29T05:19:00.469Z,100.00
2022-08-29T05:21:35.121Z,100.00
2022-08-29T05:24:05.305Z,100.00
2022-08-29T05:26:36.053Z,100.00
2022-08-29T05:29:05.090Z,100.00
2022-08-29T05:31:37.701Z,100.00
2022-08-29T05:34:14.046Z,100.00
2022-08-29T05:36:55.626Z,100.00
2022-08-29T05:39:23.835Z,100.00
2022-08-29T05:41:55.007Z,100.00
2022-08-29T05:44:23.155Z,100.00
2022-08-29T05:46:51.529Z,100.00
2022-08-29T05:49:21.463Z,100.00
2022-08-29T05:51:52.576Z,100.00
2022-08-29T05:54:20.680Z,100.00
2022-08-29T05:56:48.927Z,100.00
2022-08-29T05:59:19.862Z,100.00
2022-08-29T06:01:47.858Z,100.00
2022-08-29T06:04:16.140Z,94.21
2022-08-29T06:06:45.738Z,90.65
2022-08-29T06:09:14.730Z,88.24
2022-08-29T06:11:46.679Z,87.69
2022-08-29T06:14:15.149Z,88.98
2022-08-29T06:16:43.679Z,89.38
2022-08-29T06:19:12.556Z,85.49
2022-08-29T06:21:40.652Z,87.29
2022-08-29T06:24:10.108Z,86.91
2022-08-29T06:26:38.373Z,81.15
2022-08-29T06:29:08.124Z,77.40
2022-08-29T06:31:36.406Z,75.88
2022-08-29T06:34:06.757Z,75.16
2022-08-29T06:36:37.024Z,75.54
2022-08-29T06:39:08.088Z,69.73
2022-08-29T06:41:38.610Z,69.60
2022-08-29T06:44:08.559Z,64.55
2022-08-29T06:46:38.741Z,66.48
2022-08-29T06:49:09.609Z,63.44
2022-08-29T06:51:38.586Z,62.44
2022-08-29T06:54:10.188Z,62.23
2022-08-29T06:56:39.893Z,59.63
2022-08-29T06:59:11.170Z,59.25
2022-08-29T07:01:41.006Z,60.07
2022-08-29T07:04:14.477Z,57.94
2022-08-29T07:06:44.033Z,53.21
2022-08-29T07:09:12.481Z,53.56
2022-08-29T07:11:43.489Z,54.38
2022-08-29T07:14:12.730Z,55.43
2022-08-29T07:16:42.688Z,53.93
2022-08-29T07:19:11.555Z,51.54
2022-08-29T07:21:40.771Z,53.15
2022-08-29T07:24:09.233Z,49.92
2022-08-29T07:26:41.995Z,47.59
2022-08-29T07:29:14.681Z,47.22
2022-08-29T07:31:43.246Z,49.23
2022-08-29T07:34:12.009Z,47.74
2022-08-29T07:36:40.415Z,47.23
2022-08-29T07:39:12.818Z,46.96
2022-08-29T07:41:43.241Z,46.11
2022-08-29T07:44:14.097Z,46.41
2022-08-29T07:46:42.529Z,45.30
2022-08-29T07:49:11.702Z,45.17
2022-08-29T07:51:44.585Z,44.97
2022-08-29T07:54:16.529Z,44.05
2022-08-29T07:56:44.777Z,41.63
2022-08-29T07:59:14.870Z,42.17
2022-08-29T08:01:43.138Z,42.66
2022-08-29T08:04:12.352Z,42.45
2022-08-29T08:06:43.513Z,42.85
2022-08-29T08:09:14.004Z,42.30
2022-08-29T08:11:42.992Z,41.74
2022-08-29T08:14:11.779Z,41.72
2022-08-29T08:16:44.553Z,42.55
2022-08-29T08:19:14.200Z,43.29
2022-08-29T08:21:49.472Z,43.92
2022-08-29T08:24:19.853Z,42.74
2022-08-29T08:26:48.736Z,43.28
2022-08-29T08:29:17.216Z,41.66
2022-08-29T08:31:49.761Z,41.59
2022-08-29T08:34:18.970Z,41.46
2022-08-29T08:36:47.140Z,40.74
2022-08-29T08:39:15.456Z,40.19
2022-08-29T08:41:54.112Z,40.96
2022-08-29T08:44:43.616Z,39.50
2022-08-29T08:47:15.607Z,39.82
2022-08-29T08:49:49.966Z,40.28
2022-08-29T08:52:23.236Z,38.68
2022-08-29T08:54:56.234Z,37.82
2022-08-29T08:57:30.955Z,38.92
2022-08-29T08:59:59.845Z,40.49
2022-08-29T09:02:36.259Z,40.83
2022-08-29T09:05:24.583Z,39.43
2022-08-29T09:08:01.685Z,39.21
2022-08-29T09:10:40.176Z,39.62
2022-08-29T09:13:21.370Z,40.32
2022-08-29T09:15:52.789Z,40.42
2022-08-29T09:18:29.945Z,41.01
2022-08-29T09:20:59.663Z,40.50
2022-08-29T09:23:44.432Z,42.15
2022-08-29T09:26:13.963Z,41.38
2022-08-29T09:28:42.107Z,40.82
2022-08-29T09:31:24.050Z,40.72
2022-08-29T09:33:55.654Z,39.72
2022-08-29T09:36:41.305Z,39.55
2022-08-29T09:39:15.585Z,39.33
2022-08-29T09:41:45.434Z,38.40
2022-08-29T09:44:19.592Z,38.43
2022-08-29T09:46:48.091Z,37.78
2022-08-29T09:49:18.987Z,37.96
2022-08-29T09:51:49.084Z,37.25
2022-08-29T09:54:26.304Z,37.96
2022-08-29T09:56:58.900Z,38.70
2022-08-29T09:59:30.396Z,37.23
2022-08-29T10:02:26.634Z,36.30
2022-08-29T10:05:00.210Z,34.98
2022-08-29T10:07:32.990Z,33.62
2022-08-29T10:10:14.463Z,33.81
2022-08-29T10:12:52.159Z,31.20
2022-08-29T10:15:48.891Z,31.93
2022-08-29T10:18:21.549Z,30.71
2022-08-29T10:21:00.621Z,31.39
2022-08-29T10:23:41.697Z,29.33
2022-08-29T10:26:24.086Z,29.40
2022-08-29T10:28:59.829Z,28.63
2022-08-29T10:31:36.415Z,27.58
2022-08-29T10:34:32.279Z,28.54
2022-08-29T10:37:05.789Z,29.00
2022-08-29T10:39:39.896Z,29.44
2022-08-29T10:42:10.696Z,29.51
2022-08-29T10:44:50.515Z,30.03
2022-08-29T10:47:27.011Z,28.19
2022-08-29T10:50:17.429Z,29.03
2022-08-29T10:53:08.217Z,29.22
2022-08-29T10:55:53.388Z,26.84
2022-08-29T10:58:40.523Z,28.15
2022-08-29T11:01:13.978Z,29.07
2022-08-29T11:03:49.322Z,28.35
2022-08-29T11:06:22.600Z,28.41
2022-08-29T11:08:59.357Z,27.78
2022-08-29T11:11:30.930Z,28.16
2022-08-29T11:14:05.724Z,27.30
2022-08-29T11:16:40.101Z,26.15
2022-08-29T11:19:17.893Z,24.60
2022-08-29T11:21:56.834Z,25.32
2022-08-29T11:24:34.191Z,26.71
2022-08-29T11:27:11.078Z,25.46
2022-08-29T11:29:47.871Z,26.61
2022-08-29T11:32:26.241Z,23.89
2022-08-29T11:35:08.949Z,24.65
2022-08-29T11:38:09.075Z,25.23
2022-08-29T11:43:48.974Z,25.02
2022-08-29T11:46:30.214Z,25.90
2022-08-29T11:49:25.632Z,25.96
2022-08-29T11:51:57.743Z,25.04
2022-08-29T11:54:50.520Z,25.54
2022-08-29T11:57:49.711Z,25.71
2022-08-29T12:00:40.781Z,26.40
2022-08-29T12:03:38.618Z,25.01
2022-08-29T12:06:15.812Z,25.66
2022-08-29T12:08:49.433Z,26.13
2022-08-29T12:11:19.088Z,25.13
2022-08-29T12:14:04.652Z,24.00
2022-08-29T12:16:48.836Z,24.53
2022-08-29T12:19:50.075Z,24.36
2022-08-29T12:22:55.008Z,24.28
2022-08-29T12:26:03.755Z,26.14
2022-08-29T12:28:44.566Z,25.61
2022-08-29T12:31:25.299Z,25.25
2022-08-29T12:34:23.960Z,26.55
2022-08-29T12:37:18.280Z,25.16
2022-08-29T12:40:08.177Z,24.78
2022-08-29T12:42:47.341Z,25.86
2022-08-29T12:45:20.041Z,26.21
2022-08-29T12:47:53.590Z,28.23
2022-08-29T12:50:25.815Z,26.69
2022-08-29T12:53:02.692Z,27.20
2022-08-29T12:55:42.060Z,25.41
2022-08-29T12:58:11.381Z,25.85
2022-08-29T13:00:39.903Z,26.85
2022-08-29T13:03:18.230Z,25.61
2022-08-29T13:05:46.724Z,25.52
2022-08-29T13:08:17.770Z,25.21
2022-08-29T13:10:54.969Z,26.54
2022-08-29T13:13:25.440Z,25.57
2022-08-29T13:15:54.860Z,26.87
2022-08-29T13:18:24.749Z,25.75
2022-08-29T13:21:06.958Z,24.46
2022-08-29T13:23:38.051Z,25.22
2022-08-29T13:26:18.570Z,24.63
2022-08-29T13:28:50.809Z,24.82
2022-08-29T13:31:29.441Z,25.55
2022-08-29T13:34:19.347Z,25.11
2022-08-29T13:36:51.649Z,23.81
2022-08-29T13:39:29.799Z,25.07
2022-08-29T13:42:33.480Z,24.92
2022-08-29T13:45:21.381Z,24.55
2022-08-29T13:48:13.385Z,24.56
2022-08-29T13:50:42.861Z,23.86
2022-08-29T13:53:11.082Z,23.66
2022-08-29T13:55:42.063Z,23.56
2022-08-29T13:58:14.899Z,24.38
2022-08-29T14:00:44.032Z,25.19
2022-08-29T14:03:14.265Z,25.20
2022-08-29T14:05:44.139Z,23.72
2022-08-29T14:08:13.689Z,23.39
2022-08-29T14:10:42.109Z,23.36
2022-08-29T14:13:10.638Z,24.22
2022-08-29T14:15:39.115Z,23.77
2022-08-29T14:18:07.272Z,23.80
2022-08-29T14:20:37.043Z,23.88
2022-08-29T14:23:07.141Z,23.30
2022-08-29T14:25:35.188Z,24.00
2022-08-29T14:28:03.569Z,23.48
2022-08-29T14:30:31.609Z,23.89
2022-08-29T14:32:59.867Z,23.23
2022-08-29T14:35:31.555Z,24.07
2022-08-29T14:38:01.784Z,23.74
2022-08-29T14:40:32.528Z,23.90
2022-08-29T14:43:01.913Z,24.46
2022-08-29T14:45:31.814Z,24.77
2022-08-29T14:48:00.225Z,24.55
2022-08-29T14:50:28.857Z,24.29
2022-08-29T14:52:57.122Z,23.79
2022-08-29T14:55:25.421Z,23.69
2022-08-29T14:57:55.162Z,23.87
2022-08-29T15:00:25.070Z,23.85
2022-08-29T15:02:53.599Z,24.36
2022-08-29T15:05:21.979Z,24.21
2022-08-29T15:07:50.082Z,23.63
2022-08-29T15:10:20.967Z,24.69
2022-08-29T15:12:49.018Z,25.51
2022-08-29T15:15:18.716Z,25.52
2022-08-29T15:17:47.081Z,25.53
2022-08-29T15:20:35.741Z,25.47
2022-08-29T15:23:04.819Z,25.33
2022-08-29T15:25:32.910Z,25.55
2022-08-29T15:28:00.888Z,25.77
2022-08-29T15:30:30.394Z,25.84
2022-08-29T15:32:58.641Z,26.09
2022-08-29T15:35:26.851Z,26.43
2022-08-29T15:37:55.007Z,25.96
2022-08-29T15:40:23.326Z,25.82
2022-08-29T15:42:51.722Z,26.06
2022-08-29T15:45:22.426Z,26.96
2022-08-29T15:47:54.228Z,26.39
2022-08-29T15:50:23.613Z,26.88
2022-08-29T15:52:51.650Z,27.50
2022-08-29T15:55:20.354Z,27.23
2022-08-29T15:57:51.725Z,27.56
2022-08-29T16:00:29.540Z,27.34
2022-08-29T16:03:05.509Z,27.75
2022-08-29T16:05:34.740Z,27.75
2022-08-29T16:08:03.131Z,28.02
2022-08-29T16:10:31.970Z,28.76
2022-08-29T16:13:00.679Z,28.39
2022-08-29T16:15:30.993Z,28.67
2022-08-29T16:17:59.947Z,28.76
2022-08-29T16:20:30.408Z,28.99
2022-08-29T16:23:00.313Z,29.24
2022-08-29T16:25:29.353Z,29.64
2022-08-29T16:27:57.737Z,28.70
2022-08-29T16:30:26.328Z,28.92
2022-08-29T16:32:55.199Z,29.69
2022-08-29T16:35:23.878Z,29.59
2022-08-29T16:38:02.693Z,29.04
2022-08-29T16:40:32.087Z,28.71
2022-08-29T16:43:01.552Z,29.51
2022-08-29T16:45:29.517Z,29.69
2022-08-29T16:47:57.839Z,29.56
2022-08-29T16:50:27.669Z,29.44
2022-08-29T16:52:57.310Z,29.70
2022-08-29T16:55:25.919Z,30.03
2022-08-29T16:58:11.603Z,30.01
2022-08-29T17:00:39.864Z,30.46
2022-08-29T17:03:08.195Z,29.79
2022-08-29T17:05:36.296Z,30.86
2022-08-29T17:08:04.694Z,31.12
2022-08-29T17:10:31.689Z,30.55
2022-08-29T17:12:58.661Z,30.62
2022-08-29T17:15:25.663Z,31.27
2022-08-29T17:17:53.850Z,31.61
2022-08-29T17:20:21.960Z,31.23
2022-08-29T17:22:50.277Z,31.34
2022-08-29T17:25:19.956Z,31.65
2022-08-29T17:28:14.083Z,31.53
2022-08-29T17:30:37.336Z,32.11
2022-08-29T17:33:05.534Z,32.15
2022-08-29T17:35:33.502Z,32.02
2022-08-29T17:38:01.915Z,31.87
2022-08-29T17:40:31.817Z,31.97
2022-08-29T17:43:01.593Z,32.47
2022-08-29T17:45:29.914Z,32.40
2022-08-29T17:47:58.359Z,32.96
2022-08-29T17:50:26.607Z,32.52
2022-08-29T17:52:54.606Z,32.71
2022-08-29T17:55:22.765Z,33.13
2022-08-29T17:57:57.170Z,33.50
2022-08-29T18:00:25.601Z,33.51
2022-08-29T18:02:53.817Z,33.34
2022-08-29T18:05:22.308Z,33.98
2022-08-29T18:07:51.379Z,34.28
2022-08-29T18:10:20.681Z,34.57
2022-08-29T18:12:48.675Z,35.50
2022-08-29T18:15:18.148Z,34.93
2022-08-29T18:17:46.013Z,35.45
2022-08-29T18:20:19.312Z,35.88
2022-08-29T18:22:48.432Z,36.15
2022-08-29T18:25:16.944Z,36.74
2022-08-29T18:27:51.370Z,36.86
2022-08-29T18:30:21.136Z,37.13
2022-08-29T18:32:49.304Z,37.18
2022-08-29T18:35:17.419Z,36.95
2022-08-29T18:37:45.438Z,37.16
2022-08-29T18:40:13.696Z,36.98
2022-08-29T18:42:41.908Z,37.32
2022-08-29T18:45:10.941Z,36.48
2022-08-29T18:47:40.375Z,36.62
2022-08-29T18:50:26.756Z,36.77
2022-08-29T18:52:55.331Z,37.23
2022-08-29T18:55:23.970Z,37.11
2022-08-29T18:57:52.895Z,37.46
2022-08-29T19:00:21.555Z,37.71
2022-08-29T19:02:50.934Z,38.07
2022-08-29T19:05:19.466Z,38.49
2022-08-29T19:07:47.818Z,38.60
2022-08-29T19:10:16.825Z,39.17
2022-08-29T19:12:46.857Z,39.58
2022-08-29T19:15:15.589Z,40.07
2022-08-29T19:17:43.880Z,39.49
2022-08-29T19:20:33.822Z,40.09
2022-08-29T19:23:02.203Z,40.46
2022-08-29T19:25:30.761Z,40.11
2022-08-29T19:27:59.370Z,39.72
2022-08-29T19:30:28.184Z,39.60
2022-08-29T19:32:56.337Z,39.82
2022-08-29T19:35:26.077Z,39.78
2022-08-29T19:37:54.503Z,40.06
2022-08-29T19:40:24.455Z,40.56
2022-08-29T19:42:53.936Z,41.12
2022-08-29T19:45:22.309Z,41.46
2022-08-29T19:47:52.086Z,42.70
2022-08-29T19:50:23.492Z,43.07
2022-08-29T19:52:53.453Z,44.97
2022-08-29T19:55:23.196Z,44.51
2022-08-29T19:57:52.515Z,45.21
2022-08-29T20:00:23.806Z,46.33
2022-08-29T20:02:52.979Z,46.82
2022-08-29T20:05:21.973Z,48.29
2022-08-29T20:07:50.238Z,47.22
2022-08-29T20:10:22.830Z,47.68
2022-08-29T20:12:52.218Z,48.75
2022-08-29T20:15:22.048Z,46.30
2022-08-29T20:17:59.242Z,45.45
2022-08-29T20:20:34.390Z,45.42
2022-08-29T20:23:02.869Z,45.43
2022-08-29T20:25:33.853Z,44.71
2022-08-29T20:28:02.853Z,44.48
2022-08-29T20:30:33.734Z,43.52
2022-08-29T20:33:01.872Z,44.30
2022-08-29T20:35:47.553Z,42.98
2022-08-29T20:38:15.963Z,42.84
2022-08-29T20:40:46.806Z,42.48
2022-08-29T20:43:15.126Z,42.11
2022-08-29T20:45:43.342Z,41.90
2022-08-29T20:48:12.331Z,41.41
2022-08-29T20:50:41.153Z,41.44
2022-08-29T20:53:09.481Z,41.57
2022-08-29T20:55:43.240Z,41.44
2022-08-29T20:58:12.664Z,41.27
2022-08-29T21:00:40.676Z,41.55
2022-08-29T21:03:26.026Z,41.52
2022-08-29T21:05:54.118Z,41.64
2022-08-29T21:08:24.056Z,41.83
2022-08-29T21:10:56.088Z,41.49
2022-08-29T21:13:25.861Z,41.62
2022-08-29T21:15:53.966Z,42.07
2022-08-29T21:18:25.012Z,42.25
2022-08-29T21:20:54.633Z,42.19
2022-08-29T21:23:24.397Z,42.47
2022-08-29T21:25:54.407Z,42.53
2022-08-29T21:28:24.642Z,42.73
2022-08-29T21:30:54.693Z,43.43
2022-08-29T21:33:23.422Z,43.78
2022-08-29T21:35:51.477Z,44.74
2022-08-29T21:38:19.575Z,44.44
2022-08-29T21:40:51.069Z,46.63
2022-08-29T21:43:20.659Z,46.43
2022-08-29T21:45:49.013Z,46.74
2022-08-29T21:48:18.542Z,47.55
2022-08-29T21:50:46.519Z,48.73
2022-08-29T21:53:15.467Z,49.11
2022-08-29T21:55:43.796Z,49.75
2022-08-29T21:58:11.920Z,50.53
2022-08-29T22:00:41.744Z,55.38
2022-08-29T22:03:12.211Z,53.90
2022-08-29T22:05:44.038Z,54.15
2022-08-29T22:08:13.928Z,53.50
2022-08-29T22:10:43.509Z,55.18
2022-08-29T22:13:11.506Z,57.76
2022-08-29T22:15:57.318Z,57.30
2022-08-29T22:18:25.773Z,58.13
2022-08-29T22:20:55.870Z,58.16
2022-08-29T22:23:24.517Z,58.96
2022-08-29T22:25:53.887Z,59.22
2022-08-29T22:28:22.112Z,60.39
2022-08-29T22:30:50.189Z,60.77
2022-08-29T22:33:18.510Z,63.18
2022-08-29T22:35:47.551Z,62.58
2022-08-29T22:38:16.958Z,61.48
2022-08-29T22:40:46.850Z,62.92
2022-08-29T22:43:15.232Z,63.61
2022-08-29T22:45:44.310Z,63.78
2022-08-29T22:48:12.315Z,62.54
2022-08-29T22:50:58.130Z,60.54
2022-08-29T22:53:27.967Z,59.50
2022-08-29T22:55:56.226Z,58.89
2022-08-29T22:58:24.197Z,59.56
2022-08-29T23:00:52.258Z,60.32
2022-08-29T23:03:20.543Z,60.45
2022-08-29T23:05:48.553Z,64.03
2022-08-29T23:08:17.093Z,65.37
2022-08-29T23:10:47.777Z,63.24
2022-08-29T23:13:17.610Z,63.93
2022-08-29T23:15:45.866Z,64.16
2022-08-29T23:18:14.025Z,63.98
2022-08-29T23:20:42.149Z,62.56
2022-08-29T23:23:13.898Z,61.63
2022-08-29T23:25:41.911Z,60.85
2022-08-29T23:28:11.368Z,58.58
2022-08-29T23:30:39.459Z,58.51
2022-08-29T23:33:13.443Z,57.49
2022-08-29T23:35:41.527Z,55.47
2022-08-29T23:38:09.876Z,56.10
2022-08-29T23:40:38.487Z,56.87
2022-08-29T23:43:06.576Z,56.10
2022-08-29T23:45:36.005Z,57.73
2022-08-29T23:48:04.725Z,59.56
2022-08-29T23:50:32.667Z,60.43
2022-08-29T23:53:00.644Z,61.88
2022-08-29T23:55:28.647Z,63.65
2022-08-29T23:57:56.659Z,63.73
